首页
METAR-TAF:

METAR-TAF

机场 :

Danbury Municipal Airport

丹伯里, 康乃狄克州, 美国

纬度: 41-22-18N, 经度: 073-29-04W, 海拔: 139米

当前天气观测

该预报发布于55分钟前的01:53 UTC
风速8节,风向西转西南
温度 23°C
湿度 65%
气压 1018 hPa
能見度: 16.1公里
散云层高于12000英尺

METAR: KDXR 270153Z 24008KT 10SM SCT120 23/16 A3005 RMK AO2 SLP171 T02330156

时间: 22:48 (02:48 UTC)


TAF: 丢失

超过4000个机场的气象观测和天气预报(METAR&TAF报告)。

可查询的气象台以黄色和红色小点在地图上表示。

将鼠标移到小点上方,可查看气象台名称。

然后点击查看天气观测和预报。

如需切换地图:点击带黑十字的绿色按钮放大地图;点击带横线的绿色按钮缩小地图;或者点击绿色箭头查看邻近地区的地图。


METAR-TAF: